createdAt,value
2022-09-28T00:01:24.409Z,99523.66
2022-09-28T00:03:54.639Z,99523.66
2022-09-28T00:06:24.707Z,99532.78
2022-09-28T00:08:53.286Z,99531.53
2022-09-28T00:11:22.430Z,99534.00
2022-09-28T00:13:52.533Z,99530.13
2022-09-28T00:16:22.368Z,99540.31
2022-09-28T00:18:51.449Z,99531.59
2022-09-28T00:21:27.062Z,99527.13
2022-09-28T00:24:15.058Z,99531.59
2022-09-28T00:26:54.300Z,99534.56
2022-09-28T00:29:24.170Z,99522.16
2022-09-28T00:32:02.357Z,99520.94
2022-09-28T00:34:32.173Z,99531.81
2022-09-28T00:36:59.933Z,99527.31
2022-09-28T00:39:27.398Z,99523.19
2022-09-28T00:41:55.107Z,99523.94
2022-09-28T00:44:24.918Z,99514.78
2022-09-28T00:47:03.757Z,99511.53
2022-09-28T00:49:36.868Z,99514.72
2022-09-28T00:52:05.904Z,99516.13
2022-09-28T00:54:32.826Z,99512.03
2022-09-28T00:57:01.978Z,99512.69
2022-09-28T00:59:30.170Z,99517.94
2022-09-28T01:01:57.071Z,99512.69
2022-09-28T01:04:27.968Z,99507.84
2022-09-28T01:06:58.153Z,99516.72
2022-09-28T01:09:27.551Z,99514.09
2022-09-28T01:11:55.350Z,99523.63
2022-09-28T01:14:25.899Z,99521.44
2022-09-28T01:17:01.527Z,99512.53
2022-09-28T01:19:56.124Z,99509.88
2022-09-28T01:22:34.842Z,99510.06
2022-09-28T01:25:30.010Z,99515.16
2022-09-28T01:28:06.714Z,99514.97
2022-09-28T01:30:43.436Z,99519.03
2022-09-28T01:33:14.697Z,99523.47
2022-09-28T01:35:49.340Z,99517.59
2022-09-28T01:38:30.286Z,99519.59
2022-09-28T01:40:59.693Z,99516.16
2022-09-28T01:43:28.884Z,99517.38
2022-09-28T01:45:58.386Z,99513.09
2022-09-28T01:48:51.047Z,99509.66
2022-09-28T01:51:51.414Z,99510.66
2022-09-28T01:55:01.659Z,99516.31
2022-09-28T01:57:40.054Z,99515.09
2022-09-28T02:00:09.083Z,99515.91
2022-09-28T02:02:42.508Z,99513.50
2022-09-28T02:05:20.840Z,99513.69
2022-09-28T02:08:09.440Z,99508.59
2022-09-28T02:10:45.060Z,99507.16
2022-09-28T02:13:11.823Z,99506.34
2022-09-28T02:16:16.544Z,99513.19
2022-09-28T02:18:45.151Z,99510.75
2022-09-28T02:21:18.234Z,99507.03
2022-09-28T02:23:54.186Z,99515.34
2022-09-28T02:26:25.022Z,99507.81
2022-09-28T02:28:51.795Z,99510.63
2022-09-28T02:31:19.071Z,99502.75
2022-09-28T02:33:47.713Z,99505.72
2022-09-28T02:36:15.062Z,99501.50
2022-09-28T02:38:42.053Z,99510.22
2022-09-28T02:41:33.986Z,99513.84
2022-09-28T02:44:29.745Z,99516.66
2022-09-28T02:47:01.373Z,99516.22
2022-09-28T02:49:37.163Z,99524.31
2022-09-28T02:52:48.344Z,99516.34
2022-09-28T02:55:53.862Z,99518.53
2022-09-28T02:58:39.125Z,99511.84
2022-09-28T03:01:11.859Z,99521.75
2022-09-28T03:04:04.953Z,99512.38
2022-09-28T03:06:44.124Z,99512.94
2022-09-28T03:09:25.970Z,99514.97
2022-09-28T03:12:04.718Z,99516.78
2022-09-28T03:14:31.526Z,99511.88
2022-09-28T03:16:58.261Z,99523.22
2022-09-28T03:19:30.728Z,99515.53
2022-09-28T03:21:57.563Z,99530.50
2022-09-28T03:24:24.433Z,99517.34
2022-09-28T03:26:51.506Z,99520.59
2022-09-28T03:29:20.392Z,99515.16
2022-09-28T03:31:48.180Z,99518.22
2022-09-28T03:34:15.466Z,99519.25
2022-09-28T03:36:43.149Z,99517.59
2022-09-28T03:39:10.079Z,99513.09
2022-09-28T03:41:37.144Z,99517.69
2022-09-28T03:44:04.242Z,99523.19
2022-09-28T03:46:31.125Z,99514.47
2022-09-28T03:48:59.485Z,99517.09
2022-09-28T03:51:26.837Z,99525.59
2022-09-28T03:53:53.687Z,99528.22
2022-09-28T03:56:20.566Z,99522.16
2022-09-28T03:58:47.392Z,99521.34
2022-09-28T04:01:18.300Z,99517.44
2022-09-28T04:03:45.964Z,99523.72
2022-09-28T04:06:13.199Z,99519.47
2022-09-28T04:08:40.189Z,99522.09
2022-09-28T04:11:07.024Z,99525.72
2022-09-28T04:13:35.266Z,99524.72
2022-09-28T04:16:02.612Z,99529.34
2022-09-28T04:18:29.656Z,99528.75
2022-09-28T04:21:06.944Z,99526.47
2022-09-28T04:23:40.201Z,99527.84
2022-09-28T04:26:10.549Z,99530.47
2022-09-28T04:28:55.813Z,99529.66
2022-09-28T04:31:24.714Z,99527.19
2022-09-28T04:33:51.669Z,99527.41
2022-09-28T04:36:19.927Z,99532.47
2022-09-28T04:38:53.083Z,99536.91
2022-09-28T04:41:22.645Z,99536.28
2022-09-28T04:43:50.621Z,99527.97
2022-09-28T04:46:17.550Z,99530.59
2022-09-28T04:48:44.860Z,99528.94
2022-09-28T04:51:11.836Z,99534.00
2022-09-28T04:53:40.120Z,99533.00
2022-09-28T04:56:10.908Z,99527.97
2022-09-28T04:58:38.571Z,99538.09
2022-09-28T05:01:08.354Z,99538.47
2022-09-28T05:03:44.546Z,99535.63
2022-09-28T05:06:16.056Z,99534.47
2022-09-28T05:08:43.247Z,99538.75
2022-09-28T05:11:12.890Z,99538.75
2022-09-28T05:13:42.258Z,99533.09
2022-09-28T05:16:10.532Z,99539.19
2022-09-28T05:18:37.456Z,99537.53
2022-09-28T05:21:05.247Z,99536.53
2022-09-28T05:23:40.782Z,99536.38
2022-09-28T05:26:08.476Z,99531.47
2022-09-28T05:28:35.264Z,99533.09
2022-09-28T05:31:03.811Z,99534.09
2022-09-28T05:33:41.833Z,99536.53
2022-09-28T05:36:11.891Z,99542.25
2022-09-28T05:38:38.850Z,99541.44
2022-09-28T05:41:06.961Z,99540.44
2022-09-28T05:43:38.613Z,99546.63
2022-09-28T05:46:06.669Z,99549.44
2022-09-28T05:48:33.722Z,99551.88
2022-09-28T05:51:00.503Z,99548.44
2022-09-28T05:53:27.568Z,99546.16
2022-09-28T05:55:58.372Z,99556.25
2022-09-28T05:58:25.384Z,99552.78
2022-09-28T06:00:56.728Z,99554.97
2022-09-28T06:03:24.477Z,99559.44
2022-09-28T06:05:51.971Z,99551.44
2022-09-28T06:08:18.873Z,99552.81
2022-09-28T06:10:45.651Z,99556.09
2022-09-28T06:13:12.568Z,99560.53
2022-09-28T06:15:42.578Z,99559.06
2022-09-28T06:18:16.992Z,99566.13
2022-09-28T06:20:44.187Z,99570.56
2022-09-28T06:23:12.773Z,99562.69
2022-09-28T06:25:40.291Z,99561.88
2022-09-28T06:28:11.075Z,99569.75
2022-09-28T06:30:39.211Z,99563.50
2022-09-28T06:33:08.496Z,99563.78
2022-09-28T06:35:35.287Z,99573.47
2022-09-28T06:38:02.819Z,99573.31
2022-09-28T06:40:36.786Z,99570.28
2022-09-28T06:43:10.637Z,99573.38
2022-09-28T06:45:38.890Z,99580.09
2022-09-28T06:48:06.605Z,99582.38
2022-09-28T06:50:37.870Z,99591.66
2022-09-28T06:53:09.660Z,99585.19
2022-09-28T06:55:40.204Z,99588.44
2022-09-28T06:58:10.517Z,99591.63
2022-09-28T07:00:39.507Z,99594.25
2022-09-28T07:03:17.557Z,99597.91
2022-09-28T07:05:46.791Z,99597.28
2022-09-28T07:08:15.350Z,99596.63
2022-09-28T07:10:47.799Z,99589.81
2022-09-28T07:13:36.321Z,99593.91
2022-09-28T07:16:03.713Z,99589.66
2022-09-28T07:18:30.608Z,99591.28
2022-09-28T07:20:58.004Z,99586.63
2022-09-28T07:23:31.049Z,99595.34
2022-09-28T07:25:58.469Z,99607.13
2022-09-28T07:28:25.622Z,99598.06
2022-09-28T07:30:52.967Z,99606.59
2022-09-28T07:33:19.924Z,99606.22
2022-09-28T07:35:54.538Z,99596.94
2022-09-28T07:38:22.124Z,99597.56
2022-09-28T07:41:08.285Z,99608.09
2022-09-28T07:43:41.819Z,99594.72
2022-09-28T07:46:12.249Z,99586.09
2022-09-28T07:48:43.112Z,99601.31
2022-09-28T07:51:10.497Z,99598.94
2022-09-28T07:53:48.371Z,99606.25
2022-09-28T07:56:17.558Z,99610.13
2022-09-28T07:58:44.379Z,99606.91
2022-09-28T08:01:15.080Z,99599.28
2022-09-28T08:03:47.284Z,99608.06
2022-09-28T08:06:17.226Z,99609.31
2022-09-28T08:08:44.933Z,99604.91
2022-09-28T08:11:18.007Z,99612.06
2022-09-28T08:13:46.606Z,99605.41
2022-09-28T08:16:13.764Z,99612.94
2022-09-28T08:18:40.657Z,99613.38
2022-09-28T08:21:25.908Z,99614.63
2022-09-28T08:23:53.218Z,99610.63
2022-09-28T08:26:20.082Z,99615.34
2022-09-28T08:28:47.965Z,99615.75
2022-09-28T08:31:15.106Z,99612.72
2022-09-28T08:33:43.076Z,99616.44
2022-09-28T08:36:20.410Z,99614.44
2022-09-28T08:38:48.072Z,99614.28
2022-09-28T08:41:24.458Z,99617.78
2022-09-28T08:44:00.725Z,99612.75
2022-09-28T08:46:34.426Z,99612.78
2022-09-28T08:49:26.856Z,99615.44
2022-09-28T08:52:00.395Z,99613.84
2022-09-28T08:55:01.934Z,99604.53
2022-09-28T08:57:49.595Z,99622.00
2022-09-28T09:00:45.829Z,99612.09
2022-09-28T09:03:15.281Z,99620.22
2022-09-28T09:06:03.762Z,99618.41
2022-09-28T09:08:51.876Z,99618.66
2022-09-28T09:11:38.518Z,99622.34
2022-09-28T09:14:42.810Z,99610.41
2022-09-28T09:17:31.240Z,99620.97
2022-09-28T09:20:17.782Z,99612.81
2022-09-28T09:23:00.157Z,99616.47
2022-09-28T09:25:44.515Z,99617.09
2022-09-28T09:28:36.349Z,99621.00
2022-09-28T09:31:31.930Z,99621.03
2022-09-28T09:34:18.063Z,99625.31
2022-09-28T09:36:59.916Z,99620.84
2022-09-28T09:39:45.480Z,99625.97
2022-09-28T09:42:21.503Z,99628.16
2022-09-28T09:45:25.941Z,99614.97
2022-09-28T09:48:17.397Z,99618.81
2022-09-28T09:50:53.754Z,99621.88
2022-09-28T09:53:25.735Z,99626.75
2022-09-28T09:56:00.110Z,99613.53
2022-09-28T09:58:31.736Z,99610.53
2022-09-28T10:01:08.266Z,99612.41
2022-09-28T10:03:48.412Z,99605.50
2022-09-28T10:06:22.218Z,99604.13
2022-09-28T10:08:56.230Z,99603.31
2022-09-28T10:11:31.879Z,99598.63
2022-09-28T10:13:59.286Z,99599.25
2022-09-28T10:16:26.208Z,99601.69
2022-09-28T10:18:53.264Z,99599.06
2022-09-28T10:21:23.361Z,99605.16
2022-09-28T10:23:57.193Z,99604.53
2022-09-28T10:26:37.906Z,99604.53
2022-09-28T10:29:12.570Z,99605.97
2022-09-28T10:31:44.270Z,99604.94
2022-09-28T10:34:15.812Z,99609.41
2022-09-28T10:37:10.001Z,99615.50
2022-09-28T10:39:37.185Z,99614.09
2022-09-28T10:42:09.084Z,99613.28
2022-09-28T10:44:53.992Z,99602.09
2022-09-28T10:47:23.535Z,99613.09
2022-09-28T10:49:51.799Z,99609.63
2022-09-28T10:52:40.571Z,99607.19
2022-09-28T10:55:28.261Z,99607.56
2022-09-28T10:57:55.513Z,99610.03
2022-09-28T11:00:43.697Z,99613.69
2022-09-28T11:03:24.251Z,99612.66
2022-09-28T11:06:03.141Z,99607.56
2022-09-28T11:08:36.374Z,99617.13
2022-09-28T11:11:11.883Z,99622.63
2022-09-28T11:13:53.796Z,99618.78
2022-09-28T11:16:25.868Z,99621.41
2022-09-28T11:18:53.168Z,99622.03
2022-09-28T11:21:32.931Z,99611.22
2022-09-28T11:24:19.487Z,99608.00
2022-09-28T11:26:49.946Z,99623.25
2022-09-28T11:29:37.747Z,99623.03
2022-09-28T11:32:06.654Z,99620.19
2022-09-28T11:34:58.073Z,99621.81
2022-09-28T11:37:50.191Z,99617.75
2022-09-28T11:40:38.939Z,99616.31
2022-09-28T11:43:45.068Z,99606.13
2022-09-28T11:46:26.921Z,99606.94
2022-09-28T11:49:01.513Z,99613.03
2022-09-28T11:51:32.149Z,99610.19
2022-09-28T11:54:14.567Z,99605.72
2022-09-28T11:56:48.017Z,99610.00
2022-09-28T11:59:40.114Z,99607.16
2022-09-28T12:02:46.185Z,99607.97
2022-09-28T12:05:25.253Z,99603.47
2022-09-28T12:07:59.421Z,99601.44
2022-09-28T12:10:47.690Z,99601.81
2022-09-28T12:13:22.980Z,99601.22
2022-09-28T12:16:22.990Z,99598.56
2022-09-28T12:18:48.614Z,99604.44
2022-09-28T12:21:30.555Z,99601.19
2022-09-28T12:24:06.648Z,99599.13
2022-09-28T12:26:43.832Z,99599.75
2022-09-28T12:29:16.149Z,99593.19
2022-09-28T12:31:54.949Z,99584.66
2022-09-28T12:34:22.836Z,99597.50
2022-09-28T12:37:20.649Z,99596.69
2022-09-28T12:40:06.772Z,99592.81
2022-09-28T12:42:41.473Z,99592.63
2022-09-28T12:45:27.873Z,99581.41
2022-09-28T12:48:03.660Z,99580.41
2022-09-28T12:50:57.061Z,99578.13
2022-09-28T12:54:12.179Z,99575.09
2022-09-28T12:56:53.851Z,99577.28
2022-09-28T12:59:32.358Z,99582.78
2022-09-28T13:02:40.548Z,99584.34
2022-09-28T13:05:30.341Z,99576.00
2022-09-28T13:08:15.372Z,99576.81
2022-09-28T13:10:59.111Z,99576.59
2022-09-28T13:14:18.518Z,99573.53
2022-09-28T13:17:05.861Z,99568.41
2022-09-28T13:19:55.216Z,99575.50
2022-09-28T13:22:38.959Z,99573.03
2022-09-28T13:25:17.099Z,99566.47
2022-09-28T13:28:03.012Z,99577.09
2022-09-28T13:30:31.294Z,99568.56
2022-09-28T13:33:01.339Z,99569.34
2022-09-28T13:35:28.747Z,99570.75
2022-09-28T13:38:20.942Z,99570.75
2022-09-28T13:41:06.347Z,99569.50
2022-09-28T13:43:58.011Z,99565.03
2022-09-28T13:46:56.357Z,99555.03
2022-09-28T13:49:39.512Z,99560.13
2022-09-28T13:52:24.186Z,99567.44
2022-09-28T13:55:39.494Z,99566.44
2022-09-28T13:59:09.369Z,99568.50
2022-09-28T14:01:42.628Z,99561.34
2022-09-28T14:04:16.357Z,99564.00
2022-09-28T14:06:52.448Z,99560.94
2022-09-28T14:09:28.171Z,99568.28
2022-09-28T14:11:59.062Z,99563.19
2022-09-28T14:14:30.743Z,99562.38
2022-09-28T14:17:04.881Z,99564.00
2022-09-28T14:19:35.244Z,99566.41
2022-09-28T14:22:07.211Z,99563.16
2022-09-28T14:24:46.626Z,99552.56
2022-09-28T14:27:20.500Z,99554.59
2022-09-28T14:29:54.337Z,99553.38
2022-09-28T14:32:25.213Z,99554.59
2022-09-28T14:34:57.880Z,99551.13
2022-09-28T14:37:34.201Z,99552.19
2022-09-28T14:40:20.161Z,99550.94
2022-09-28T14:43:11.843Z,99548.47
2022-09-28T14:45:41.327Z,99543.19
2022-09-28T14:48:14.754Z,99549.31
2022-09-28T14:50:42.260Z,99547.47
2022-09-28T14:53:14.540Z,99550.53
2022-09-28T14:55:50.834Z,99548.88
2022-09-28T14:58:22.909Z,99549.47
2022-09-28T15:00:56.531Z,99550.72
2022-09-28T15:03:30.102Z,99547.47
2022-09-28T15:06:03.534Z,99542.16
2022-09-28T15:08:37.733Z,99546.66
2022-09-28T15:11:05.871Z,99543.19
2022-09-28T15:16:11.848Z,99541.59
2022-09-28T15:18:45.444Z,99543.63
2022-09-28T15:21:13.622Z,99539.13
2022-09-28T15:23:44.539Z,99537.72
2022-09-28T15:26:18.433Z,99546.72
2022-09-28T15:28:46.248Z,99537.94
2022-09-28T15:31:19.511Z,99538.59
2022-09-28T15:34:05.752Z,99544.09
2022-09-28T15:36:39.934Z,99541.66
2022-09-28T15:39:13.808Z,99532.88
2022-09-28T15:41:44.735Z,99539.81
2022-09-28T15:44:13.617Z,99535.34
2022-09-28T15:46:44.691Z,99542.84
2022-09-28T15:49:18.900Z,99544.06
2022-09-28T15:51:50.612Z,99547.53
2022-09-28T15:54:25.543Z,99529.19
2022-09-28T15:57:00.133Z,99532.66
2022-09-28T15:59:35.570Z,99526.34
2022-09-28T16:02:11.692Z,99534.50
2022-09-28T16:04:40.977Z,99527.56
2022-09-28T16:07:29.493Z,99531.47
2022-09-28T16:10:01.289Z,99530.66
2022-09-28T16:12:42.483Z,99540.19
2022-09-28T16:15:18.642Z,99534.69
2022-09-28T16:17:54.707Z,99532.84
2022-09-28T16:20:29.195Z,99524.09
2022-09-28T16:23:06.124Z,99533.06
2022-09-28T16:25:37.738Z,99531.03
2022-09-28T16:28:06.887Z,99530.59
2022-09-28T16:30:35.026Z,99526.34
2022-09-28T16:33:07.034Z,99535.88
2022-09-28T16:35:40.767Z,99530.81
2022-09-28T16:38:16.070Z,99526.91
2022-09-28T16:40:58.898Z,99533.22
2022-09-28T16:43:49.960Z,99530.22
2022-09-28T16:46:23.728Z,99527.56
2022-09-28T16:48:52.781Z,99532.84
2022-09-28T16:51:23.223Z,99528.38
2022-09-28T16:54:04.347Z,99530.22
2022-09-28T16:56:33.580Z,99534.69
2022-09-28T16:59:03.487Z,99537.53
2022-09-28T17:01:31.873Z,99536.97
2022-09-28T17:03:59.760Z,99541.66
2022-09-28T17:06:28.165Z,99542.66
2022-09-28T17:09:00.732Z,99533.94
2022-09-28T17:11:28.201Z,99538.63
2022-09-28T17:13:59.367Z,99529.50
2022-09-28T17:17:03.811Z,99543.38
2022-09-28T17:19:20.924Z,99536.84
2022-09-28T17:21:49.977Z,99538.31
2022-09-28T17:24:24.114Z,99540.56
2022-09-28T17:26:55.990Z,99551.59
2022-09-28T17:29:23.864Z,99543.06
2022-09-28T17:31:50.667Z,99539.78
2022-09-28T17:34:17.587Z,99540.44
2022-09-28T17:36:45.618Z,99535.56
2022-09-28T17:39:19.820Z,99539.44
2022-09-28T17:41:46.944Z,99541.50
2022-09-28T17:44:16.857Z,99539.25
2022-09-28T17:46:50.965Z,99536.03
2022-09-28T17:49:18.841Z,99537.06
2022-09-28T17:51:45.698Z,99535.44
2022-09-28T17:54:14.309Z,99528.34
2022-09-28T17:56:42.577Z,99535.69
2022-09-28T17:59:13.165Z,99537.94
2022-09-28T18:01:40.750Z,99536.09
2022-09-28T18:04:13.214Z,99535.69
2022-09-28T18:06:45.840Z,99531.81
2022-09-28T18:09:14.949Z,99534.91
2022-09-28T18:11:44.493Z,99531.88
2022-09-28T18:14:11.508Z,99534.31
2022-09-28T18:16:38.345Z,99529.22
2022-09-28T18:19:05.171Z,99525.78
2022-09-28T18:21:33.003Z,99531.25
2022-09-28T18:23:59.857Z,99527.22
2022-09-28T18:26:26.653Z,99527.41
2022-09-28T18:28:56.539Z,99535.97
2022-09-28T18:31:23.497Z,99536.78
2022-09-28T18:33:50.361Z,99532.50
2022-09-28T18:36:17.211Z,99531.88
2022-09-28T18:38:43.969Z,99529.25
2022-09-28T18:41:16.025Z,99536.59
2022-09-28T18:44:00.668Z,99541.25
2022-09-28T18:46:29.271Z,99536.41
2022-09-28T18:48:56.421Z,99539.03
2022-09-28T18:51:23.457Z,99534.13
2022-09-28T18:53:50.427Z,99533.56
2022-09-28T18:56:18.489Z,99535.16
2022-09-28T18:58:46.721Z,99531.72
2022-09-28T19:01:33.845Z,99533.56
2022-09-28T19:04:02.284Z,99543.91
2022-09-28T19:06:30.094Z,99536.41
2022-09-28T19:08:57.466Z,99535.78
2022-09-28T19:11:25.515Z,99541.28
2022-09-28T19:13:54.145Z,99542.69
2022-09-28T19:16:24.289Z,99541.28
2022-09-28T19:18:52.609Z,99552.88
2022-09-28T19:21:19.811Z,99545.75
2022-09-28T19:23:49.576Z,99543.75
2022-09-28T19:26:21.098Z,99545.34
2022-09-28T19:28:48.603Z,99548.59
2022-09-28T19:31:15.578Z,99545.34
2022-09-28T19:33:42.419Z,99554.50
2022-09-28T19:36:13.305Z,99558.16
2022-09-28T19:38:41.272Z,99552.28
2022-09-28T19:41:51.470Z,99549.84
2022-09-28T19:44:25.725Z,99543.94
2022-09-28T19:47:04.990Z,99546.81
2022-09-28T19:49:36.883Z,99549.03
2022-09-28T19:52:16.169Z,99561.66
2022-09-28T19:54:44.654Z,99557.97
2022-09-28T19:57:16.163Z,99557.19
2022-09-28T19:59:43.117Z,99556.13
2022-09-28T20:02:10.990Z,99565.31
2022-09-28T20:04:37.809Z,99564.28
2022-09-28T20:07:05.253Z,99565.09
2022-09-28T20:09:33.071Z,99566.13
2022-09-28T20:11:59.937Z,99569.97
2022-09-28T20:14:32.872Z,99564.69
2022-09-28T20:17:00.917Z,99570.19
2022-09-28T20:19:27.679Z,99571.59
2022-09-28T20:21:55.020Z,99565.72
2022-09-28T20:24:21.782Z,99573.22
2022-09-28T20:26:49.755Z,99575.06
2022-09-28T20:29:16.552Z,99570.16
2022-09-28T20:31:44.218Z,99572.22
2022-09-28T20:34:12.365Z,99577.88
2022-09-28T20:36:43.338Z,99578.31
2022-09-28T20:39:11.237Z,99584.59
2022-09-28T20:41:38.106Z,99576.06
2022-09-28T20:44:06.637Z,99583.16
2022-09-28T20:46:36.945Z,99585.59
2022-09-28T20:49:05.003Z,99588.84
2022-09-28T20:51:32.272Z,99586.63
2022-09-28T20:53:59.742Z,99583.56
2022-09-28T20:56:29.205Z,99588.03
2022-09-28T20:58:57.068Z,99586.41
2022-09-28T21:01:26.542Z,99587.59
2022-09-28T21:03:55.987Z,99586.19
2022-09-28T21:06:26.186Z,99579.91
2022-09-28T21:08:53.472Z,99577.84
2022-09-28T21:11:23.628Z,99585.19
2022-09-28T21:13:55.696Z,99575.63
2022-09-28T21:16:22.469Z,99574.81
2022-09-28T21:18:49.336Z,99579.66
2022-09-28T21:21:18.357Z,99578.22
2022-09-28T21:23:53.167Z,99575.38
2022-09-28T21:26:25.220Z,99581.91
2022-09-28T21:28:55.724Z,99586.19
2022-09-28T21:31:28.515Z,99587.34
2022-09-28T21:33:56.527Z,99583.72
2022-09-28T21:36:23.309Z,99584.09
2022-09-28T21:38:50.115Z,99581.25
2022-09-28T21:41:17.395Z,99583.88
2022-09-28T21:43:44.259Z,99590.38
2022-09-28T21:46:11.476Z,99589.75
2022-09-28T21:48:38.357Z,99584.88
2022-09-28T21:51:07.879Z,99587.09
2022-09-28T21:53:43.047Z,99577.94
2022-09-28T21:56:11.831Z,99591.53
2022-09-28T21:58:40.284Z,99584.00
2022-09-28T22:01:15.665Z,99590.50
2022-09-28T22:03:44.198Z,99589.06
2022-09-28T22:06:11.534Z,99586.00
2022-09-28T22:08:39.757Z,99589.84
2022-09-28T22:11:12.461Z,99585.78
2022-09-28T22:13:52.541Z,99589.03
2022-09-28T22:16:22.356Z,99585.75
2022-09-28T22:18:49.850Z,99587.78
2022-09-28T22:21:23.587Z,99595.88
2022-09-28T22:23:51.207Z,99595.25
2022-09-28T22:26:23.715Z,99591.41
2022-09-28T22:28:53.809Z,99589.53
2022-09-28T22:31:24.007Z,99586.88
2022-09-28T22:33:50.935Z,99598.47
2022-09-28T22:36:17.938Z,99587.94
2022-09-28T22:38:45.783Z,99596.44
2022-09-28T22:41:16.050Z,99592.16
2022-09-28T22:43:43.780Z,99591.97
2022-09-28T22:46:16.876Z,99590.97
2022-09-28T22:48:54.363Z,99593.63
2022-09-28T22:51:22.271Z,99594.00
2022-09-28T22:53:49.339Z,99591.56
2022-09-28T22:56:19.018Z,99586.28
2022-09-28T22:58:47.007Z,99585.06
2022-09-28T23:01:18.723Z,99580.63
2022-09-28T23:03:48.641Z,99577.56
2022-09-28T23:06:17.983Z,99575.09
2022-09-28T23:08:47.544Z,99579.34
2022-09-28T23:11:15.820Z,99575.28
2022-09-28T23:13:43.887Z,99579.31
2022-09-28T23:16:15.174Z,99576.44
2022-09-28T23:18:44.895Z,99571.38
2022-09-28T23:21:16.328Z,99565.09
2022-09-28T23:23:52.710Z,99578.06
2022-09-28T23:26:23.098Z,99568.53
2022-09-28T23:28:50.174Z,99571.56
2022-09-28T23:31:28.608Z,99570.13
2022-09-28T23:34:06.684Z,99569.50
2022-09-28T23:36:34.564Z,99572.13
2022-09-28T23:39:01.819Z,99572.75
2022-09-28T23:41:28.950Z,99564.84
2022-09-28T23:43:56.255Z,99569.09
2022-09-28T23:46:23.605Z,99567.09
2022-09-28T23:48:50.846Z,99574.00
2022-09-28T23:51:17.685Z,99569.91
2022-09-28T23:53:44.997Z,99576.22
2022-09-28T23:56:12.514Z,99576.59
2022-09-28T23:58:39.279Z,99577.16
